createdAt,value
2022-10-31T00:00:05.371Z,16.38
2022-10-31T00:01:06.167Z,16.43
2022-10-31T00:01:47.303Z,16.41
2022-10-31T00:02:28.294Z,16.39
2022-10-31T00:03:08.331Z,16.40
2022-10-31T00:03:48.173Z,16.45
2022-10-31T00:04:35.272Z,16.44
2022-10-31T00:05:29.247Z,16.38
2022-10-31T00:06:23.183Z,16.44
2022-10-31T00:07:17.172Z,16.20
2022-10-31T00:08:11.199Z,16.28
2022-10-31T00:09:14.209Z,16.29
2022-10-31T00:09:54.207Z,16.29
2022-10-31T00:10:34.287Z,16.26
2022-10-31T00:11:18.191Z,16.28
2022-10-31T00:11:58.312Z,16.26
2022-10-31T00:12:39.166Z,16.32
2022-10-31T00:14:03.191Z,16.20
2022-10-31T00:14:43.234Z,16.31
2022-10-31T00:15:23.223Z,16.31
2022-10-31T00:16:03.256Z,16.30
2022-10-31T00:16:44.218Z,16.31
2022-10-31T00:17:24.320Z,16.30
2022-10-31T00:18:06.214Z,16.28
2022-10-31T00:18:46.251Z,16.29
2022-10-31T00:19:26.190Z,16.26
2022-10-31T00:20:06.271Z,16.25
2022-10-31T00:20:47.180Z,16.25
2022-10-31T00:21:28.247Z,16.15
2022-10-31T00:22:09.209Z,16.27
2022-10-31T00:22:49.252Z,16.18
2022-10-31T00:23:29.212Z,16.23
2022-10-31T00:24:09.269Z,16.22
2022-10-31T00:24:49.156Z,16.23
2022-10-31T00:25:29.267Z,16.20
2022-10-31T00:26:11.205Z,16.22
2022-10-31T00:26:51.218Z,16.24
2022-10-31T00:27:32.179Z,16.16
2022-10-31T00:28:14.292Z,16.09
2022-10-31T00:28:55.185Z,16.20
2022-10-31T00:29:35.272Z,16.18
2022-10-31T00:30:16.156Z,16.19
2022-10-31T00:30:56.223Z,16.19
2022-10-31T00:31:37.223Z,16.12
2022-10-31T00:32:18.256Z,16.16
2022-10-31T00:32:58.555Z,16.12
2022-10-31T00:33:47.136Z,16.13
2022-10-31T00:34:27.139Z,16.18
2022-10-31T00:35:07.210Z,16.14
2022-10-31T00:35:47.182Z,16.15
2022-10-31T00:36:27.248Z,16.14
2022-10-31T00:37:08.272Z,16.01
2022-10-31T00:37:48.229Z,16.12
2022-10-31T00:38:29.185Z,16.08
2022-10-31T00:39:09.276Z,16.10
2022-10-31T00:39:49.142Z,16.07
2022-10-31T00:40:29.210Z,16.08
2022-10-31T00:41:09.157Z,16.05
2022-10-31T00:41:49.226Z,16.04
2022-10-31T00:42:30.187Z,16.06
2022-10-31T00:43:13.180Z,15.98
2022-10-31T00:43:54.135Z,15.98
2022-10-31T00:44:34.240Z,16.00
2022-10-31T00:45:18.156Z,15.98
2022-10-31T00:45:58.208Z,15.97
2022-10-31T00:46:38.129Z,15.99
2022-10-31T00:47:18.236Z,15.95
2022-10-31T00:48:05.219Z,15.81
2022-10-31T00:48:39.058Z,15.91
2022-10-31T00:49:26.155Z,15.94
2022-10-31T00:49:59.858Z,15.90
2022-10-31T00:50:47.352Z,15.90
2022-10-31T00:51:22.199Z,15.88
2022-10-31T00:52:10.150Z,15.82
2022-10-31T00:52:43.932Z,15.80
2022-10-31T00:53:24.153Z,15.79
2022-10-31T00:53:58.231Z,15.76
2022-10-31T00:54:31.925Z,15.81
2022-10-31T00:55:13.131Z,15.77
2022-10-31T00:55:47.243Z,15.80
2022-10-31T00:56:20.824Z,15.76
2022-10-31T00:57:02.151Z,15.78
2022-10-31T00:57:36.212Z,15.71
2022-10-31T00:58:09.898Z,15.74
2022-10-31T00:58:50.156Z,15.75
2022-10-31T00:59:24.236Z,15.72
2022-10-31T00:59:57.875Z,15.73
2022-10-31T01:00:38.156Z,15.73
2022-10-31T01:01:12.330Z,15.67
2022-10-31T01:01:45.969Z,15.68
2022-10-31T01:02:27.285Z,15.71
2022-10-31T01:03:01.533Z,15.70
2022-10-31T01:03:36.098Z,15.58
2022-10-31T01:04:16.208Z,15.65
2022-10-31T01:04:50.224Z,15.61
2022-10-31T01:05:23.976Z,15.63
2022-10-31T01:06:11.146Z,15.60
2022-10-31T01:06:45.156Z,15.61
2022-10-31T01:07:18.913Z,15.55
2022-10-31T01:07:59.135Z,15.55
2022-10-31T01:08:33.264Z,15.49
2022-10-31T01:09:06.871Z,15.56
2022-10-31T01:09:48.168Z,15.57
2022-10-31T01:10:22.167Z,15.54
2022-10-31T01:11:20.953Z,15.56
2022-10-31T01:12:02.132Z,15.55
2022-10-31T01:12:36.206Z,15.54
2022-10-31T01:13:10.056Z,15.54
2022-10-31T01:13:51.168Z,15.57
2022-10-31T01:14:25.221Z,15.58
2022-10-31T01:15:05.190Z,15.56
2022-10-31T01:15:45.231Z,15.57
2022-10-31T01:16:28.110Z,15.52
2022-10-31T01:17:09.175Z,15.33
2022-10-31T01:17:49.105Z,15.39
2022-10-31T01:18:30.248Z,15.32
2022-10-31T01:19:10.111Z,15.30
2022-10-31T01:19:50.167Z,15.35
2022-10-31T01:20:30.165Z,15.26
2022-10-31T01:21:18.193Z,15.34
2022-10-31T01:21:58.146Z,15.36
2022-10-31T01:22:38.184Z,15.40
2022-10-31T01:23:18.099Z,15.40
2022-10-31T01:24:03.023Z,15.45
2022-10-31T01:24:43.092Z,15.41
2022-10-31T01:25:23.220Z,15.36
2022-10-31T01:26:40.139Z,15.36
2022-10-31T01:27:21.230Z,15.34
2022-10-31T01:28:01.364Z,15.40
2022-10-31T01:28:43.187Z,15.41
2022-10-31T01:29:23.106Z,15.35
2022-10-31T01:30:03.224Z,15.39
2022-10-31T01:30:43.164Z,15.23
2022-10-31T01:31:25.256Z,15.37
2022-10-31T01:32:06.130Z,15.39
2022-10-31T01:32:46.168Z,15.39
2022-10-31T01:33:26.093Z,15.30
2022-10-31T01:34:07.691Z,15.34
2022-10-31T01:34:48.129Z,15.26
2022-10-31T01:35:28.181Z,15.29
2022-10-31T01:36:09.104Z,15.33
2022-10-31T01:36:52.312Z,15.31
2022-10-31T01:37:33.169Z,15.30
2022-10-31T01:38:13.175Z,15.18
2022-10-31T01:38:55.081Z,15.29
2022-10-31T01:39:35.175Z,15.31
2022-10-31T01:40:16.120Z,15.32
2022-10-31T01:40:57.217Z,15.09
2022-10-31T01:41:41.112Z,15.33
2022-10-31T01:42:28.163Z,15.24
2022-10-31T01:43:08.219Z,15.25
2022-10-31T01:44:22.203Z,15.23
2022-10-31T01:45:07.077Z,15.20
2022-10-31T01:45:49.152Z,15.10
2022-10-31T01:46:39.096Z,15.17
2022-10-31T01:47:25.206Z,14.98
2022-10-31T01:48:06.120Z,15.11
2022-10-31T01:48:47.122Z,15.01
2022-10-31T01:49:31.176Z,15.18
2022-10-31T01:50:13.359Z,15.20
2022-10-31T01:50:56.116Z,15.16
2022-10-31T01:51:35.217Z,15.16
2022-10-31T01:52:27.211Z,15.22
2022-10-31T01:53:08.091Z,15.19
2022-10-31T01:53:43.220Z,15.21
2022-10-31T01:54:26.125Z,15.18
2022-10-31T01:55:13.191Z,15.23
2022-10-31T01:55:54.093Z,15.29
2022-10-31T01:56:35.140Z,15.30
2022-10-31T01:57:18.114Z,15.29
2022-10-31T01:58:02.693Z,15.10
2022-10-31T01:58:43.072Z,15.20
2022-10-31T01:59:34.125Z,15.15
2022-10-31T02:00:11.097Z,15.18
2022-10-31T02:01:05.056Z,15.29
2022-10-31T02:01:42.196Z,15.28
2022-10-31T02:02:30.263Z,15.25
2022-10-31T02:03:04.297Z,15.19
2022-10-31T02:03:52.084Z,15.11
2022-10-31T02:04:26.661Z,15.07
2022-10-31T02:05:12.181Z,15.13
2022-10-31T02:05:46.152Z,15.13
2022-10-31T02:06:42.507Z,14.96
2022-10-31T02:07:28.125Z,15.00
2022-10-31T02:08:21.155Z,15.15
2022-10-31T02:08:57.449Z,15.09
2022-10-31T02:09:39.095Z,15.11
2022-10-31T02:10:20.120Z,15.13
2022-10-31T02:10:54.119Z,15.11
2022-10-31T02:11:43.154Z,15.06
2022-10-31T02:12:17.352Z,15.13
2022-10-31T02:13:09.067Z,15.07
2022-10-31T02:13:42.999Z,15.07
2022-10-31T02:14:30.086Z,15.04
2022-10-31T02:15:04.973Z,15.05
2022-10-31T02:15:47.079Z,14.95
2022-10-31T02:16:21.103Z,14.75
2022-10-31T02:16:55.536Z,14.99
2022-10-31T02:17:38.068Z,14.96
2022-10-31T02:18:13.135Z,15.00
2022-10-31T02:18:46.826Z,14.96
2022-10-31T02:19:42.091Z,14.94
2022-10-31T02:20:30.146Z,14.95
2022-10-31T02:21:53.081Z,14.94
2022-10-31T02:23:12.127Z,14.98
2022-10-31T02:24:21.091Z,14.90
2022-10-31T02:25:59.168Z,14.97
2022-10-31T02:27:14.124Z,14.75
2022-10-31T02:28:40.167Z,14.81
2022-10-31T02:29:41.081Z,14.81
2022-10-31T02:30:34.157Z,14.78
2022-10-31T02:31:44.055Z,14.86
2022-10-31T02:33:01.223Z,14.78
2022-10-31T02:34:06.019Z,14.78
2022-10-31T02:35:32.131Z,14.89
2022-10-31T02:36:28.798Z,14.91
2022-10-31T02:37:45.051Z,14.86
2022-10-31T02:38:50.070Z,14.79
2022-10-31T02:39:40.119Z,14.73
2022-10-31T02:40:33.048Z,14.78
2022-10-31T02:41:43.123Z,14.72
2022-10-31T02:42:36.031Z,14.72
2022-10-31T02:44:00.101Z,14.77
2022-10-31T02:44:45.678Z,14.67
2022-10-31T02:45:33.072Z,14.76
2022-10-31T02:46:22.360Z,14.75
2022-10-31T02:47:14.111Z,14.73
2022-10-31T02:47:50.317Z,14.83
2022-10-31T02:48:43.038Z,14.80
2022-10-31T02:49:48.099Z,14.89
2022-10-31T02:50:36.251Z,14.80
2022-10-31T02:51:17.065Z,14.82
2022-10-31T02:51:58.171Z,14.75
2022-10-31T02:52:40.069Z,14.66
2022-10-31T02:53:23.131Z,14.60
2022-10-31T02:54:03.075Z,14.65
2022-10-31T02:54:43.087Z,14.73
2022-10-31T02:55:32.082Z,14.75
2022-10-31T02:56:22.080Z,14.76
2022-10-31T02:57:13.019Z,14.58
2022-10-31T02:57:53.162Z,14.63
2022-10-31T02:58:38.047Z,14.48
2022-10-31T02:59:18.131Z,14.54
2022-10-31T03:00:06.051Z,14.44
2022-10-31T03:01:11.163Z,14.55
2022-10-31T03:02:01.761Z,14.53
2022-10-31T03:03:15.032Z,14.54
2022-10-31T03:03:58.941Z,14.64
2022-10-31T03:05:01.076Z,14.66
2022-10-31T03:06:01.924Z,14.60
2022-10-31T03:07:16.147Z,14.71
2022-10-31T03:08:03.121Z,14.68
2022-10-31T03:09:17.238Z,14.73
2022-10-31T03:10:12.999Z,14.71
2022-10-31T03:10:55.096Z,14.76
2022-10-31T03:11:52.196Z,14.70
2022-10-31T03:13:07.078Z,14.64
2022-10-31T03:14:12.129Z,14.54
2022-10-31T03:15:01.063Z,14.77
2022-10-31T03:16:09.003Z,14.65
2022-10-31T03:16:58.110Z,14.63
2022-10-31T03:17:40.359Z,14.63
2022-10-31T03:19:12.040Z,14.70
2022-10-31T03:19:51.093Z,14.69
2022-10-31T03:20:34.969Z,14.63
2022-10-31T03:21:22.019Z,14.61
2022-10-31T03:22:05.731Z,14.65
2022-10-31T03:22:42.155Z,14.60
2022-10-31T03:23:25.021Z,14.61
2022-10-31T03:24:00.111Z,14.64
2022-10-31T03:24:45.071Z,14.67
2022-10-31T03:25:26.157Z,14.64
2022-10-31T03:26:09.020Z,14.70
2022-10-31T03:26:57.191Z,14.70
2022-10-31T03:27:42.092Z,14.73
2022-10-31T03:28:25.154Z,14.73
2022-10-31T03:29:18.098Z,14.78
2022-10-31T03:30:11.044Z,14.83
2022-10-31T03:30:45.795Z,14.79
2022-10-31T03:31:37.031Z,14.84
2022-10-31T03:32:26.222Z,14.85
2022-10-31T03:33:16.069Z,14.75
2022-10-31T03:33:52.205Z,14.68
2022-10-31T03:34:40.005Z,14.76
2022-10-31T03:35:22.035Z,14.77
2022-10-31T03:36:03.022Z,14.65
2022-10-31T03:36:47.046Z,14.73
2022-10-31T03:37:29.074Z,14.77
2022-10-31T03:38:11.005Z,14.78
2022-10-31T03:38:53.088Z,14.71
2022-10-31T03:39:34.006Z,14.64
2022-10-31T03:40:18.083Z,14.74
2022-10-31T03:41:00.036Z,14.76
2022-10-31T03:41:47.094Z,14.71
2022-10-31T03:42:31.967Z,14.79
2022-10-31T03:43:18.197Z,14.85
2022-10-31T03:44:11.005Z,14.76
2022-10-31T03:44:48.095Z,14.81
2022-10-31T03:45:37.980Z,14.81
2022-10-31T03:46:19.032Z,14.77
2022-10-31T03:47:12.996Z,14.78
2022-10-31T03:48:08.030Z,14.79
2022-10-31T03:49:01.988Z,14.76
2022-10-31T03:49:56.081Z,14.78
2022-10-31T03:51:27.027Z,14.81
2022-10-31T03:52:39.999Z,14.80
2022-10-31T03:53:48.956Z,14.74
2022-10-31T03:55:50.997Z,14.81
2022-10-31T03:56:49.027Z,14.80
2022-10-31T03:58:11.014Z,14.80
2022-10-31T03:59:14.986Z,14.79
2022-10-31T04:00:30.014Z,14.78
2022-10-31T04:01:27.164Z,14.77
2022-10-31T04:02:21.088Z,14.75
2022-10-31T04:03:20.076Z,14.76
2022-10-31T04:04:08.036Z,14.64
2022-10-31T04:04:43.452Z,14.66
2022-10-31T04:05:30.981Z,14.67
2022-10-31T04:06:10.313Z,14.68
2022-10-31T04:06:58.964Z,14.68
2022-10-31T04:07:45.076Z,14.68
2022-10-31T04:08:43.012Z,14.51
2022-10-31T04:09:36.987Z,14.68
2022-10-31T04:10:33.325Z,14.60
2022-10-31T04:11:28.962Z,14.65
2022-10-31T04:12:23.970Z,14.49
2022-10-31T04:13:12.033Z,14.57
2022-10-31T04:13:53.091Z,14.53
2022-10-31T04:14:35.953Z,14.41
2022-10-31T04:15:18.024Z,14.55
2022-10-31T04:16:00.007Z,14.59
2022-10-31T04:16:40.041Z,14.58
2022-10-31T04:17:24.965Z,14.51
2022-10-31T04:18:07.119Z,14.57
2022-10-31T04:18:47.972Z,14.61
2022-10-31T04:19:28.061Z,14.60
2022-10-31T04:20:08.943Z,14.63
2022-10-31T04:20:50.955Z,14.57
2022-10-31T04:21:39.970Z,14.57
2022-10-31T04:22:21.064Z,14.54
2022-10-31T04:23:00.961Z,14.54
2022-10-31T04:23:43.084Z,14.58
2022-10-31T04:24:24.043Z,14.56
2022-10-31T04:25:04.054Z,14.52
2022-10-31T04:26:35.973Z,14.35
2022-10-31T04:27:29.991Z,14.52
2022-10-31T04:28:23.960Z,14.53
2022-10-31T04:29:17.992Z,14.55
2022-10-31T04:30:05.267Z,14.54
2022-10-31T04:30:45.107Z,14.50
2022-10-31T04:31:26.948Z,14.47
2022-10-31T04:32:07.082Z,14.41
2022-10-31T04:32:46.930Z,14.48
2022-10-31T04:33:27.041Z,14.44
2022-10-31T04:34:08.942Z,14.45
2022-10-31T04:34:49.105Z,14.39
2022-10-31T04:35:28.996Z,14.40
2022-10-31T04:36:09.063Z,14.42
2022-10-31T04:36:48.936Z,14.26
2022-10-31T04:37:29.019Z,14.32
2022-10-31T04:38:08.923Z,14.24
2022-10-31T04:39:14.627Z,14.33
2022-10-31T04:40:02.928Z,14.23
2022-10-31T04:40:42.956Z,14.32
2022-10-31T04:41:22.991Z,14.12
2022-10-31T04:42:02.956Z,14.28
2022-10-31T04:42:49.020Z,14.18
2022-10-31T04:43:28.984Z,14.16
2022-10-31T04:44:10.999Z,14.18
2022-10-31T04:44:50.934Z,14.18
2022-10-31T04:45:30.975Z,14.14
2022-10-31T04:46:11.971Z,14.11
2022-10-31T04:46:51.988Z,14.18
2022-10-31T04:47:40.907Z,14.15
2022-10-31T04:48:56.920Z,14.13
2022-10-31T04:49:46.938Z,14.21
2022-10-31T04:50:45.389Z,14.25
2022-10-31T04:51:35.004Z,14.18
2022-10-31T04:52:11.135Z,14.22
2022-10-31T04:52:57.913Z,14.19
2022-10-31T04:53:32.053Z,14.12
2022-10-31T04:54:18.933Z,14.12
2022-10-31T04:54:56.032Z,13.93
2022-10-31T04:55:44.978Z,13.91
2022-10-31T04:56:19.027Z,13.94
2022-10-31T04:56:58.943Z,13.94
2022-10-31T04:57:38.991Z,14.00
2022-10-31T04:58:18.963Z,13.99
2022-10-31T04:58:58.990Z,13.98
2022-10-31T04:59:39.907Z,13.99
2022-10-31T05:00:22.997Z,14.01
2022-10-31T05:01:04.178Z,14.02
2022-10-31T05:01:45.218Z,14.08
2022-10-31T05:02:25.019Z,14.06
2022-10-31T05:03:05.983Z,14.11
2022-10-31T05:03:46.930Z,14.15
2022-10-31T05:04:26.987Z,14.12
2022-10-31T05:05:07.935Z,14.09
2022-10-31T05:05:49.005Z,14.14
2022-10-31T05:06:28.891Z,14.11
2022-10-31T05:07:09.126Z,14.16
2022-10-31T05:07:52.019Z,14.02
2022-10-31T05:08:31.964Z,14.11
2022-10-31T05:09:12.923Z,14.13
2022-10-31T05:09:53.069Z,14.07
2022-10-31T05:10:36.909Z,14.08
2022-10-31T05:11:16.951Z,14.12
2022-10-31T05:11:56.899Z,14.06
2022-10-31T05:12:36.981Z,14.14
2022-10-31T05:13:17.962Z,14.15
2022-10-31T05:14:11.903Z,14.15
2022-10-31T05:15:06.093Z,14.12
2022-10-31T05:15:59.907Z,14.21
2022-10-31T05:16:53.903Z,14.17
2022-10-31T05:17:47.905Z,14.23
2022-10-31T05:18:34.917Z,14.22
2022-10-31T05:19:08.967Z,14.29
2022-10-31T05:19:55.888Z,14.30
2022-10-31T05:20:34.008Z,14.30
2022-10-31T05:21:20.896Z,14.34
2022-10-31T05:21:54.994Z,14.35
2022-10-31T05:22:41.912Z,14.32
2022-10-31T05:23:15.987Z,14.35
2022-10-31T05:23:56.896Z,14.34
2022-10-31T05:24:37.173Z,14.32
2022-10-31T05:25:17.871Z,14.27
2022-10-31T05:25:57.980Z,14.37
2022-10-31T05:26:37.899Z,14.37
2022-10-31T05:27:17.979Z,14.35
2022-10-31T05:28:00.343Z,14.26
2022-10-31T05:28:40.934Z,14.37
2022-10-31T05:29:21.946Z,14.27
2022-10-31T05:30:02.189Z,14.21
2022-10-31T05:30:42.907Z,14.25
2022-10-31T05:31:22.968Z,14.29
2022-10-31T05:32:02.889Z,14.32
2022-10-31T05:32:50.991Z,14.33
2022-10-31T05:33:31.902Z,14.36
2022-10-31T05:34:12.011Z,14.26
2022-10-31T05:34:51.936Z,14.33
2022-10-31T05:35:38.975Z,14.34
2022-10-31T05:36:18.879Z,14.25
2022-10-31T05:36:59.001Z,14.30
2022-10-31T05:37:39.874Z,14.21
2022-10-31T05:38:20.047Z,14.18
2022-10-31T05:39:00.912Z,14.23
2022-10-31T05:39:40.943Z,14.16
2022-10-31T05:40:23.887Z,14.13
2022-10-31T05:41:03.948Z,14.11
2022-10-31T05:41:43.903Z,14.15
2022-10-31T05:42:23.941Z,14.15
2022-10-31T05:43:05.883Z,14.06
2022-10-31T05:43:45.992Z,14.08
2022-10-31T05:44:26.862Z,13.93
2022-10-31T05:45:06.918Z,13.90
2022-10-31T05:45:46.913Z,13.97
2022-10-31T05:46:26.984Z,13.98
2022-10-31T05:47:06.899Z,13.97
2022-10-31T05:47:46.923Z,13.93
2022-10-31T05:48:27.924Z,13.98
2022-10-31T05:49:07.931Z,14.00
2022-10-31T05:49:48.863Z,13.95
2022-10-31T05:50:29.952Z,13.96
2022-10-31T05:51:10.907Z,13.73
2022-10-31T05:51:50.921Z,13.85
2022-10-31T05:52:31.881Z,13.88
2022-10-31T05:53:12.951Z,13.81
2022-10-31T05:53:54.914Z,13.93
2022-10-31T05:54:34.968Z,13.87
2022-10-31T05:55:15.877Z,13.96
2022-10-31T05:55:55.950Z,14.00
2022-10-31T05:56:35.902Z,13.94
2022-10-31T05:57:16.938Z,13.98
2022-10-31T05:57:57.076Z,13.88
2022-10-31T05:58:37.931Z,13.95
2022-10-31T05:59:18.855Z,13.92
2022-10-31T05:59:58.941Z,13.97
2022-10-31T06:00:41.874Z,13.85
2022-10-31T06:01:22.070Z,13.92
2022-10-31T06:02:01.939Z,13.95
2022-10-31T06:02:41.908Z,13.90
2022-10-31T06:03:21.854Z,13.88
2022-10-31T06:04:01.956Z,13.92
2022-10-31T06:04:41.929Z,13.96
2022-10-31T06:05:21.886Z,13.96
2022-10-31T06:06:01.856Z,14.00
2022-10-31T06:06:41.920Z,13.97
2022-10-31T06:07:22.900Z,13.81
2022-10-31T06:08:04.365Z,14.05
2022-10-31T06:08:45.887Z,14.06
2022-10-31T06:09:26.984Z,14.12
2022-10-31T06:10:07.852Z,14.07
2022-10-31T06:10:47.904Z,14.14
2022-10-31T06:11:27.829Z,14.05
2022-10-31T06:12:07.924Z,14.12
2022-10-31T06:12:48.998Z,13.99
2022-10-31T06:13:28.928Z,14.15
2022-10-31T06:14:09.851Z,14.07
2022-10-31T06:14:49.950Z,14.07
2022-10-31T06:15:30.010Z,14.03
2022-10-31T06:16:09.906Z,14.04
2022-10-31T06:16:49.855Z,14.02
2022-10-31T06:17:29.905Z,14.09
2022-10-31T06:18:12.903Z,14.04
2022-10-31T06:18:54.917Z,14.04
2022-10-31T06:19:34.931Z,14.07
2022-10-31T06:20:16.005Z,14.03
2022-10-31T06:20:55.835Z,14.04
2022-10-31T06:21:35.944Z,13.99
2022-10-31T06:22:18.836Z,14.02
2022-10-31T06:22:59.271Z,14.05
2022-10-31T06:23:40.900Z,14.01
2022-10-31T06:24:20.929Z,13.91
2022-10-31T06:25:00.847Z,13.98
2022-10-31T06:25:41.982Z,14.03
2022-10-31T06:26:21.853Z,14.07
2022-10-31T06:27:01.942Z,14.02
2022-10-31T06:27:41.841Z,14.02
2022-10-31T06:28:21.949Z,14.05
2022-10-31T06:29:04.016Z,14.12
2022-10-31T06:29:46.802Z,14.17
2022-10-31T06:30:27.822Z,14.17
2022-10-31T06:31:07.939Z,14.17
2022-10-31T06:31:47.824Z,14.10
2022-10-31T06:32:27.908Z,14.13
2022-10-31T06:33:12.843Z,14.03
2022-10-31T06:33:52.908Z,14.04
2022-10-31T06:34:32.855Z,14.08
2022-10-31T06:35:13.980Z,14.03
2022-10-31T06:35:54.819Z,13.98
2022-10-31T06:36:34.942Z,14.03
2022-10-31T06:37:16.814Z,14.04
2022-10-31T06:38:04.263Z,14.05
2022-10-31T06:38:45.806Z,14.07
2022-10-31T06:39:25.918Z,14.02
2022-10-31T06:40:05.883Z,14.11
2022-10-31T06:40:45.904Z,14.03
2022-10-31T06:43:33.891Z,13.89
2022-10-31T06:44:14.922Z,13.95
2022-10-31T06:44:54.863Z,13.96
2022-10-31T06:45:35.895Z,13.98
2022-10-31T06:46:11.917Z,13.94
2022-10-31T06:46:58.867Z,13.95
2022-10-31T06:47:35.281Z,14.00
2022-10-31T06:48:28.838Z,13.98
2022-10-31T06:49:02.886Z,14.08
2022-10-31T06:49:49.815Z,14.02
2022-10-31T06:50:23.895Z,14.03
2022-10-31T06:51:07.894Z,13.92
2022-10-31T06:51:47.973Z,14.04
2022-10-31T06:52:27.826Z,13.96
2022-10-31T06:53:07.966Z,14.06
2022-10-31T06:53:48.844Z,14.03
2022-10-31T06:54:28.978Z,14.02
2022-10-31T06:55:08.853Z,13.89
2022-10-31T06:55:49.888Z,14.00
2022-10-31T06:56:29.875Z,14.04
2022-10-31T06:57:23.807Z,14.02
2022-10-31T06:58:17.885Z,14.04
2022-10-31T06:59:11.926Z,14.15
2022-10-31T07:00:07.852Z,14.07
2022-10-31T07:01:02.891Z,14.16
2022-10-31T07:01:50.001Z,14.15
2022-10-31T07:02:26.980Z,14.19
2022-10-31T07:03:18.811Z,14.17
2022-10-31T07:03:54.971Z,14.24
2022-10-31T07:04:41.838Z,14.17
2022-10-31T07:05:15.959Z,13.99
2022-10-31T07:06:03.831Z,14.21
2022-10-31T07:06:37.986Z,14.18
2022-10-31T07:07:17.823Z,14.19
2022-10-31T07:08:09.933Z,14.13
2022-10-31T07:08:50.808Z,14.08
2022-10-31T07:09:30.890Z,14.19
2022-10-31T07:11:00.877Z,14.28
2022-10-31T07:11:40.807Z,14.30
2022-10-31T07:12:27.883Z,14.32
2022-10-31T07:13:32.826Z,14.31
2022-10-31T07:14:26.859Z,14.28
2022-10-31T07:15:21.845Z,14.29
2022-10-31T07:16:19.837Z,14.25
2022-10-31T07:17:06.930Z,14.23
2022-10-31T07:17:47.878Z,14.31
2022-10-31T07:18:28.929Z,14.38
2022-10-31T07:19:09.856Z,14.41
2022-10-31T07:19:49.852Z,14.40
2022-10-31T07:20:29.815Z,14.50
2022-10-31T07:21:10.943Z,14.49
2022-10-31T07:21:50.776Z,14.46
2022-10-31T07:22:30.846Z,14.40
2022-10-31T07:23:11.861Z,14.46
2022-10-31T07:23:54.831Z,14.35
2022-10-31T07:24:35.756Z,14.47
2022-10-31T07:25:16.892Z,14.54
2022-10-31T07:26:03.794Z,14.43
2022-10-31T07:26:43.966Z,14.54
2022-10-31T07:27:23.782Z,14.51
2022-10-31T07:28:04.186Z,14.54
2022-10-31T07:28:45.844Z,14.60
2022-10-31T07:29:26.881Z,14.65
2022-10-31T07:30:06.781Z,14.70
2022-10-31T07:30:46.864Z,14.66
2022-10-31T07:31:26.848Z,14.64
2022-10-31T07:32:06.913Z,14.66
2022-10-31T07:32:57.771Z,14.71
2022-10-31T07:33:38.955Z,14.68
2022-10-31T07:34:19.799Z,14.75
2022-10-31T07:35:00.985Z,14.78
2022-10-31T07:35:42.847Z,14.73
2022-10-31T07:36:22.934Z,14.71
2022-10-31T07:37:02.771Z,14.61
2022-10-31T07:37:42.832Z,14.72
2022-10-31T07:38:23.875Z,14.67
2022-10-31T07:39:03.858Z,14.71
2022-10-31T07:39:44.797Z,14.70
2022-10-31T07:40:26.054Z,14.74
2022-10-31T07:41:05.779Z,14.71
2022-10-31T07:41:45.864Z,14.78
2022-10-31T07:42:25.742Z,14.79
2022-10-31T07:43:08.827Z,14.79
2022-10-31T07:44:33.904Z,14.84
2022-10-31T07:45:16.849Z,14.75
2022-10-31T07:45:58.879Z,14.89
2022-10-31T07:46:41.800Z,14.74
2022-10-31T07:47:21.848Z,14.96
2022-10-31T07:48:03.118Z,14.93
2022-10-31T07:48:43.809Z,14.89
2022-10-31T07:49:24.764Z,14.91
2022-10-31T07:50:04.835Z,14.97
2022-10-31T07:50:44.832Z,14.98
2022-10-31T07:51:25.079Z,14.99
2022-10-31T07:52:04.775Z,14.97
2022-10-31T07:52:44.850Z,14.96
2022-10-31T07:53:24.774Z,14.99
2022-10-31T07:54:04.800Z,14.82
2022-10-31T07:54:45.728Z,14.97
2022-10-31T07:55:25.877Z,14.94
2022-10-31T07:56:05.802Z,15.01
2022-10-31T07:56:48.074Z,14.99
2022-10-31T07:57:31.883Z,15.03
2022-10-31T07:58:20.892Z,15.08
2022-10-31T07:59:00.755Z,15.00
2022-10-31T07:59:40.830Z,14.96
2022-10-31T08:00:21.723Z,15.02
2022-10-31T08:01:01.983Z,15.05
2022-10-31T08:01:41.774Z,15.06
2022-10-31T08:02:21.824Z,15.18
2022-10-31T08:03:11.729Z,15.06
2022-10-31T08:03:51.842Z,15.13
2022-10-31T08:04:32.750Z,15.25
2022-10-31T08:05:13.795Z,15.20
2022-10-31T08:05:54.759Z,15.26
2022-10-31T08:06:35.359Z,15.18
2022-10-31T08:07:15.755Z,15.31
2022-10-31T08:07:49.452Z,15.30
2022-10-31T08:08:38.400Z,15.34
2022-10-31T08:09:12.532Z,15.13
2022-10-31T08:09:59.755Z,15.26
2022-10-31T08:10:34.461Z,15.30
2022-10-31T08:11:21.726Z,15.28
2022-10-31T08:11:55.623Z,15.30
2022-10-31T08:12:35.738Z,15.31
2022-10-31T08:13:44.887Z,15.37
2022-10-31T08:14:19.477Z,15.41
2022-10-31T08:14:59.708Z,15.36
2022-10-31T08:15:35.126Z,15.49
2022-10-31T08:16:09.515Z,15.51
2022-10-31T08:16:49.738Z,15.57
2022-10-31T08:17:23.801Z,15.48
2022-10-31T08:18:05.844Z,15.50
2022-10-31T08:18:45.834Z,15.65
2022-10-31T08:19:25.749Z,15.62
2022-10-31T08:20:05.831Z,15.56
2022-10-31T08:20:46.718Z,15.63
2022-10-31T08:21:26.812Z,15.69
2022-10-31T08:22:07.725Z,15.71
2022-10-31T08:22:47.828Z,15.69
2022-10-31T08:23:27.783Z,15.74
2022-10-31T08:24:08.861Z,15.62
2022-10-31T08:24:48.750Z,15.72
2022-10-31T08:25:33.783Z,15.84
2022-10-31T08:26:19.728Z,15.81
2022-10-31T08:27:00.891Z,15.64
2022-10-31T08:27:40.727Z,15.81
2022-10-31T08:28:21.943Z,15.81
2022-10-31T08:29:02.793Z,15.86
2022-10-31T08:29:42.827Z,15.87
2022-10-31T08:30:22.790Z,15.93
2022-10-31T08:31:06.676Z,15.94
2022-10-31T08:31:46.896Z,15.98
2022-10-31T08:32:26.810Z,15.96
2022-10-31T08:33:18.808Z,15.88
2022-10-31T08:34:00.789Z,16.00
2022-10-31T08:34:40.743Z,16.02
2022-10-31T08:35:21.801Z,16.05
2022-10-31T08:36:01.718Z,16.08
2022-10-31T08:36:43.233Z,16.03
2022-10-31T08:37:27.731Z,16.06
2022-10-31T08:38:08.800Z,16.11
2022-10-31T08:38:48.788Z,16.15
2022-10-31T08:39:35.990Z,16.14
2022-10-31T08:40:16.740Z,16.23
2022-10-31T08:40:57.777Z,16.19
2022-10-31T08:41:37.717Z,16.07
2022-10-31T08:42:17.790Z,16.31
2022-10-31T08:43:05.746Z,16.30
2022-10-31T08:43:46.841Z,16.33
2022-10-31T08:44:26.727Z,16.25
2022-10-31T08:45:06.782Z,16.27
2022-10-31T08:45:46.734Z,16.37
2022-10-31T08:46:26.802Z,16.41
2022-10-31T08:47:06.709Z,16.38
2022-10-31T08:47:46.808Z,16.38
2022-10-31T08:48:26.722Z,16.43
2022-10-31T08:49:07.820Z,16.42
2022-10-31T08:49:47.733Z,16.60
2022-10-31T08:50:27.779Z,16.60
2022-10-31T08:51:07.753Z,16.40
2022-10-31T08:51:47.789Z,16.47
2022-10-31T08:52:58.692Z,16.52
2022-10-31T08:53:33.844Z,16.42
2022-10-31T08:54:14.738Z,16.46
2022-10-31T08:54:54.736Z,16.35
2022-10-31T08:55:34.690Z,16.43
2022-10-31T08:56:22.715Z,16.45
2022-10-31T08:56:57.235Z,16.50
2022-10-31T08:57:43.797Z,16.49
2022-10-31T08:58:20.264Z,16.50
2022-10-31T08:59:08.703Z,16.37
2022-10-31T08:59:42.445Z,16.36
2022-10-31T09:00:30.710Z,16.33
2022-10-31T09:01:04.481Z,16.36
2022-10-31T09:01:44.808Z,16.38
2022-10-31T09:02:22.876Z,16.37
2022-10-31T09:03:13.680Z,16.38
2022-10-31T09:03:47.952Z,16.41
2022-10-31T09:04:36.972Z,16.52
2022-10-31T09:05:11.766Z,16.56
2022-10-31T09:06:03.813Z,16.40
2022-10-31T09:06:46.499Z,16.54
2022-10-31T09:07:35.702Z,16.60
2022-10-31T09:08:20.832Z,16.61
2022-10-31T09:09:14.714Z,16.52
2022-10-31T09:09:56.993Z,16.58
2022-10-31T09:10:37.719Z,16.63
2022-10-31T09:11:17.899Z,16.70
2022-10-31T09:11:59.703Z,16.73
2022-10-31T09:12:51.924Z,16.70
2022-10-31T09:13:48.203Z,16.77
2022-10-31T09:14:41.738Z,16.80
2022-10-31T09:15:36.696Z,16.86
2022-10-31T09:16:35.389Z,16.80
2022-10-31T09:17:29.722Z,16.86
2022-10-31T09:18:10.837Z,16.69
2022-10-31T09:18:50.774Z,16.77
2022-10-31T09:19:31.735Z,16.78
2022-10-31T09:20:13.850Z,16.86
2022-10-31T09:20:57.737Z,16.85
2022-10-31T09:21:40.798Z,16.91
2022-10-31T09:22:21.731Z,16.97
2022-10-31T09:23:20.757Z,16.98
2022-10-31T09:24:14.692Z,16.93
2022-10-31T09:25:11.284Z,16.84
2022-10-31T09:26:07.770Z,16.99
2022-10-31T09:27:01.704Z,17.09
2022-10-31T09:27:56.005Z,17.08
2022-10-31T09:28:44.718Z,17.00
2022-10-31T09:29:18.842Z,17.13
2022-10-31T09:30:05.667Z,17.03
2022-10-31T09:30:41.766Z,17.02
2022-10-31T09:31:28.744Z,17.13
2022-10-31T09:32:06.742Z,17.14
2022-10-31T09:32:55.720Z,17.23